Micoud, Saint Lucia
Current Conditions -  °F | °C
As of 12:00 AM on Friday 31 Oct 2014 (Local Time) from TLPL Reporting Station
Scattered Clouds Scattered Clouds  
Wind Chill: 82°   Ceiling: Unl
Heat Index: 89°   Visibility: 6mi
Dew Point: 75°   Wind: 18mph
Humidity: 79%   Direction: 110°ESE
Pressure: 29.85"   Gusts: NA
Location:  13.82°N, 60.9°W
Report Text: TLPL 310400Z 11016KT 9999 SCT024 28/24 Q1011 NOSIG
Loading
Personal Weather Stations






























Interactive Weather Map
Tropical Storm Tracking
New forecast layout! Learn more

10-Day Weather Forecast

Advertisements
Track Severe Weather on mobile